Terminal Aerodrome Forecast
Issued by NWS

Home | Current Version | Previous Version | Text Only | Print | Product List | Glossary On
Versions: 1 2 3 4 5 6 7 8 9 10 11 12 13
000
FTUS45 KREV 260529
TAFCXP
TAF
KCXP 260529Z 2606/2706 19006KT P6SM SCT040 BKN090
     FM261200 29011G19KT P6SM SCT030 BKN060
     FM261500 26012G24KT P6SM VCSH BKN030 BKN060
     FM262000 26020G32KT P6SM BKN040 BKN080
     FM270200 29011G20KT P6SM SCT040 BKN090=

USA.gov is the U.S. government's official web portal to all federal, state and local government web resources and services.